createdAt,value
2022-09-09T00:00:17.078Z,81.60
2022-09-09T00:02:22.485Z,81.40
2022-09-09T00:04:30.514Z,81.30
2022-09-09T00:06:36.420Z,81.40
2022-09-09T00:08:47.463Z,81.40
2022-09-09T00:10:56.351Z,81.30
2022-09-09T00:13:07.710Z,81.50
2022-09-09T00:15:15.955Z,81.60
2022-09-09T00:17:32.647Z,81.50
2022-09-09T00:19:43.801Z,81.60
2022-09-09T00:21:54.016Z,82.30
2022-09-09T00:23:57.832Z,81.70
2022-09-09T00:26:08.668Z,81.90
2022-09-09T00:28:19.359Z,82.10
2022-09-09T00:30:24.892Z,81.90
2022-09-09T00:32:32.455Z,81.90
2022-09-09T00:34:38.373Z,81.90
2022-09-09T00:36:42.039Z,81.70
2022-09-09T00:38:50.180Z,81.80
2022-09-09T00:40:55.430Z,81.80
2022-09-09T00:43:17.451Z,81.70
2022-09-09T00:45:51.445Z,81.70
2022-09-09T00:47:55.773Z,81.80
2022-09-09T00:50:03.656Z,81.80
2022-09-09T00:52:25.368Z,81.80
2022-09-09T00:54:41.297Z,81.90
2022-09-09T00:56:52.105Z,81.70
2022-09-09T00:59:05.105Z,82.00
2022-09-09T01:01:12.866Z,81.80
2022-09-09T01:03:25.532Z,81.90
2022-09-09T01:05:37.627Z,82.10
2022-09-09T01:07:42.293Z,82.00
2022-09-09T01:09:54.563Z,82.10
2022-09-09T01:12:04.028Z,82.00
2022-09-09T01:14:19.408Z,82.00
2022-09-09T01:16:22.749Z,81.90
2022-09-09T01:18:30.016Z,81.60
2022-09-09T01:20:46.447Z,81.60
2022-09-09T01:23:04.866Z,81.70
2022-09-09T01:25:29.072Z,81.70
2022-09-09T01:27:35.477Z,81.70
2022-09-09T01:29:38.671Z,81.50
2022-09-09T01:31:43.187Z,81.40
2022-09-09T01:33:46.102Z,81.40
2022-09-09T01:35:55.357Z,81.50
2022-09-09T01:37:58.287Z,81.80
2022-09-09T01:40:01.334Z,81.80
2022-09-09T01:42:05.817Z,82.00
2022-09-09T01:44:10.746Z,81.90
2022-09-09T01:46:15.362Z,82.60
2022-09-09T01:48:19.990Z,81.80
2022-09-09T01:50:23.411Z,81.80
2022-09-09T01:55:53.910Z,81.90
2022-09-09T01:58:10.545Z,81.80
2022-09-09T02:00:17.117Z,81.80
2022-09-09T02:02:24.917Z,81.80
2022-09-09T02:04:39.090Z,81.90
2022-09-09T02:06:42.924Z,81.90
2022-09-09T02:08:49.924Z,81.80
2022-09-09T02:11:00.725Z,82.00
2022-09-09T02:13:07.052Z,82.30
2022-09-09T02:15:19.471Z,82.20
2022-09-09T02:17:28.175Z,82.30
2022-09-09T02:19:34.667Z,82.40
2022-09-09T02:21:37.923Z,82.30
2022-09-09T02:23:43.065Z,82.30
2022-09-09T02:25:47.290Z,82.50
2022-09-09T02:27:52.779Z,82.50
2022-09-09T02:29:58.488Z,83.20
2022-09-09T02:32:06.459Z,82.50
2022-09-09T02:34:12.823Z,82.60
2022-09-09T02:36:18.004Z,82.80
2022-09-09T02:38:23.718Z,82.70
2022-09-09T02:40:26.605Z,82.70
2022-09-09T02:42:29.576Z,82.90
2022-09-09T02:44:32.474Z,82.80
2022-09-09T02:46:49.012Z,82.90
2022-09-09T02:49:00.603Z,83.00
2022-09-09T02:51:11.244Z,82.80
2022-09-09T02:53:19.192Z,82.80
2022-09-09T02:55:30.657Z,82.90
2022-09-09T02:57:36.137Z,82.80
2022-09-09T02:59:39.730Z,83.00
2022-09-09T03:01:43.888Z,83.10
2022-09-09T03:03:47.613Z,83.20
2022-09-09T03:05:52.647Z,83.30
2022-09-09T03:07:56.341Z,83.60
2022-09-09T03:10:02.622Z,83.70
2022-09-09T03:12:07.450Z,83.80
2022-09-09T03:14:12.431Z,84.10
2022-09-09T03:16:16.093Z,84.20
2022-09-09T03:18:19.213Z,84.80
2022-09-09T03:20:23.132Z,84.00
2022-09-09T03:22:28.394Z,83.90
2022-09-09T03:24:31.297Z,84.00
2022-09-09T03:26:34.431Z,84.10
2022-09-09T03:28:37.460Z,84.10
2022-09-09T03:30:40.397Z,84.20
2022-09-09T03:32:47.076Z,84.20
2022-09-09T03:34:51.742Z,84.30
2022-09-09T03:36:54.762Z,84.40
2022-09-09T03:39:00.217Z,84.30
2022-09-09T03:41:03.459Z,84.30
2022-09-09T03:43:09.191Z,84.20
2022-09-09T03:45:12.460Z,84.80
2022-09-09T03:47:22.658Z,84.00
2022-09-09T03:49:27.403Z,84.10
2022-09-09T03:51:31.502Z,84.10
2022-09-09T03:53:35.288Z,84.00
2022-09-09T03:55:39.384Z,84.10
2022-09-09T03:57:42.146Z,84.20
2022-09-09T03:59:44.898Z,84.10
2022-09-09T04:01:48.189Z,84.00
2022-09-09T04:03:51.338Z,84.00
2022-09-09T04:05:54.385Z,83.90
2022-09-09T04:07:57.228Z,83.70
2022-09-09T04:09:59.991Z,83.70
2022-09-09T04:12:04.489Z,83.50
2022-09-09T04:14:07.908Z,83.40
2022-09-09T04:16:14.115Z,83.40
2022-09-09T04:18:19.922Z,83.40
2022-09-09T04:20:23.440Z,83.40
2022-09-09T04:22:28.215Z,83.20
2022-09-09T04:24:30.946Z,83.20
2022-09-09T04:26:33.850Z,83.20
2022-09-09T04:28:39.531Z,83.10
2022-09-09T04:30:42.429Z,83.10
2022-09-09T04:32:45.139Z,83.00
2022-09-09T04:34:48.718Z,83.00
2022-09-09T04:36:52.878Z,83.10
2022-09-09T04:38:55.598Z,83.10
2022-09-09T04:40:58.497Z,83.10
2022-09-09T04:43:02.109Z,83.00
2022-09-09T04:45:07.655Z,82.90
2022-09-09T04:47:10.565Z,82.90
2022-09-09T04:49:15.208Z,82.80
2022-09-09T04:51:18.198Z,82.80
2022-09-09T04:53:20.933Z,82.80
2022-09-09T04:55:23.742Z,82.70
2022-09-09T04:57:26.531Z,82.80
2022-09-09T04:59:29.270Z,82.90
2022-09-09T05:01:33.351Z,82.60
2022-09-09T05:03:36.366Z,82.70
2022-09-09T05:05:39.127Z,82.60
2022-09-09T05:07:42.670Z,82.60
2022-09-09T05:09:46.298Z,82.50
2022-09-09T05:11:49.843Z,82.50
2022-09-09T05:13:54.657Z,82.40
2022-09-09T05:15:57.417Z,82.30
2022-09-09T05:18:03.320Z,82.40
2022-09-09T05:20:09.897Z,82.50
2022-09-09T05:22:14.046Z,82.40
2022-09-09T05:24:16.827Z,82.50
2022-09-09T05:26:22.809Z,82.50
2022-09-09T05:28:26.731Z,82.60
2022-09-09T05:30:29.528Z,82.50
2022-09-09T05:32:35.117Z,82.50
2022-09-09T05:34:40.426Z,82.50
2022-09-09T05:36:46.154Z,82.50
2022-09-09T05:38:50.217Z,82.30
2022-09-09T05:40:58.118Z,82.30
2022-09-09T05:43:02.927Z,82.30
2022-09-09T05:45:06.395Z,82.30
2022-09-09T05:47:10.118Z,82.30
2022-09-09T05:49:16.758Z,82.50
2022-09-09T05:51:22.927Z,82.50
2022-09-09T05:53:26.127Z,82.60
2022-09-09T05:55:28.881Z,82.50
2022-09-09T05:57:31.557Z,82.40
2022-09-09T05:59:34.325Z,82.50
2022-09-09T06:01:41.490Z,82.50
2022-09-09T06:03:46.047Z,82.50
2022-09-09T06:05:48.725Z,83.20
2022-09-09T06:07:56.094Z,82.40
2022-09-09T06:10:00.057Z,82.50
2022-09-09T06:12:03.021Z,82.40
2022-09-09T06:14:06.686Z,82.30
2022-09-09T06:16:12.375Z,82.30
2022-09-09T06:18:15.348Z,82.30
2022-09-09T06:20:20.794Z,82.30
2022-09-09T06:22:23.589Z,82.40
2022-09-09T06:24:27.679Z,82.40
2022-09-09T06:26:32.657Z,83.10
2022-09-09T06:28:35.945Z,82.60
2022-09-09T06:30:39.454Z,82.60
2022-09-09T06:32:42.196Z,82.60
2022-09-09T06:34:46.361Z,82.60
2022-09-09T06:36:49.176Z,82.50
2022-09-09T06:38:52.214Z,82.50
2022-09-09T06:40:58.848Z,82.40
2022-09-09T06:43:02.737Z,82.30
2022-09-09T06:45:05.978Z,82.10
2022-09-09T06:47:08.992Z,82.20
2022-09-09T06:49:11.928Z,82.30
2022-09-09T06:51:19.737Z,82.50
2022-09-09T06:53:23.190Z,82.60
2022-09-09T06:55:25.970Z,82.70
2022-09-09T06:57:38.174Z,82.70
2022-09-09T06:59:43.498Z,82.80
2022-09-09T07:01:49.467Z,83.00
2022-09-09T07:03:55.734Z,82.80
2022-09-09T07:05:58.923Z,82.80
2022-09-09T07:08:01.613Z,82.70
2022-09-09T07:10:05.782Z,82.70
2022-09-09T07:12:08.586Z,82.80
2022-09-09T07:14:14.506Z,82.40
2022-09-09T07:16:19.333Z,82.40
2022-09-09T07:18:22.329Z,82.50
2022-09-09T07:20:25.061Z,82.40
2022-09-09T07:22:29.531Z,82.20
2022-09-09T07:24:32.713Z,82.20
2022-09-09T07:26:36.243Z,82.40
2022-09-09T07:28:39.899Z,82.20
2022-09-09T07:30:44.267Z,82.30
2022-09-09T07:32:47.120Z,81.90
2022-09-09T07:34:51.208Z,82.10
2022-09-09T07:36:53.968Z,81.90
2022-09-09T07:38:58.248Z,81.60
2022-09-09T07:41:06.634Z,82.20
2022-09-09T07:43:09.751Z,82.30
2022-09-09T07:45:12.873Z,81.80
2022-09-09T07:47:16.983Z,81.90
2022-09-09T07:49:26.203Z,82.30
2022-09-09T07:51:33.142Z,82.40
2022-09-09T07:53:37.424Z,81.90
2022-09-09T07:55:40.320Z,82.00
2022-09-09T07:57:43.133Z,82.00
2022-09-09T07:59:46.427Z,82.10
2022-09-09T08:01:55.441Z,82.00
2022-09-09T08:04:02.554Z,81.80
2022-09-09T08:06:07.923Z,81.70
2022-09-09T08:08:10.793Z,81.70
2022-09-09T08:10:15.488Z,82.30
2022-09-09T08:12:19.256Z,81.00
2022-09-09T08:14:22.975Z,80.80
2022-09-09T08:16:27.472Z,81.30
2022-09-09T08:18:30.268Z,81.00
2022-09-09T08:20:34.395Z,80.80
2022-09-09T08:22:38.628Z,80.20
2022-09-09T08:24:42.017Z,80.20
2022-09-09T08:26:46.560Z,80.70
2022-09-09T08:28:50.202Z,80.60
2022-09-09T08:30:54.235Z,80.30
2022-09-09T08:32:56.983Z,80.30
2022-09-09T08:35:08.024Z,80.40
2022-09-09T08:37:12.459Z,79.80
2022-09-09T08:39:16.601Z,79.80
2022-09-09T08:41:44.501Z,79.80
2022-09-09T08:43:51.682Z,79.40
2022-09-09T08:46:01.033Z,79.90
2022-09-09T08:48:13.089Z,79.60
2022-09-09T08:50:26.982Z,79.30
2022-09-09T08:52:32.841Z,79.60
2022-09-09T08:54:51.600Z,79.90
2022-09-09T08:56:55.208Z,79.70
2022-09-09T08:58:59.234Z,78.70
2022-09-09T09:01:24.436Z,79.00
2022-09-09T09:03:36.100Z,78.80
2022-09-09T09:05:47.654Z,78.90
2022-09-09T09:08:01.740Z,78.80
2022-09-09T09:10:30.969Z,78.70
2022-09-09T09:12:40.378Z,79.70
2022-09-09T09:14:45.217Z,79.00
2022-09-09T09:16:54.636Z,79.10
2022-09-09T09:19:00.811Z,78.70
2022-09-09T09:21:12.416Z,78.30
2022-09-09T09:23:23.335Z,78.40
2022-09-09T09:25:33.667Z,77.60
2022-09-09T09:27:38.708Z,78.30
2022-09-09T09:30:10.066Z,77.10
2022-09-09T09:32:06.072Z,76.70
2022-09-09T09:34:12.057Z,76.90
2022-09-09T09:36:16.207Z,77.00
2022-09-09T09:40:52.102Z,77.20
2022-09-09T09:42:56.731Z,76.90
2022-09-09T09:45:09.923Z,76.40
2022-09-09T09:47:15.354Z,76.10
2022-09-09T09:49:18.305Z,75.80
2022-09-09T09:51:24.409Z,74.70
2022-09-09T09:53:30.351Z,74.70
2022-09-09T09:55:35.867Z,74.40
2022-09-09T09:57:39.143Z,75.10
2022-09-09T09:59:42.002Z,74.10
2022-09-09T10:01:44.981Z,74.10
2022-09-09T10:03:53.549Z,74.00
2022-09-09T10:05:57.209Z,73.30
2022-09-09T10:08:11.465Z,73.20
2022-09-09T10:10:22.760Z,73.40
2022-09-09T10:12:37.294Z,73.60
2022-09-09T10:14:49.577Z,73.00
2022-09-09T10:17:15.525Z,72.30
2022-09-09T10:19:22.809Z,72.40
2022-09-09T10:21:45.878Z,72.00
2022-09-09T10:24:04.249Z,72.00
2022-09-09T10:26:23.903Z,71.00
2022-09-09T10:28:41.656Z,71.70
2022-09-09T10:30:52.083Z,71.90
2022-09-09T10:33:06.570Z,71.70
2022-09-09T10:35:16.558Z,71.90
2022-09-09T10:37:30.816Z,71.20
2022-09-09T10:39:42.230Z,70.90
2022-09-09T10:41:58.593Z,70.60
2022-09-09T10:44:31.015Z,69.90
2022-09-09T10:46:43.282Z,70.10
2022-09-09T10:49:01.233Z,69.60
2022-09-09T10:51:17.704Z,70.10
2022-09-09T10:53:31.815Z,69.80
2022-09-09T10:55:41.225Z,69.60
2022-09-09T10:57:48.880Z,68.70
2022-09-09T10:59:57.844Z,68.20
2022-09-09T11:02:06.957Z,68.30
2022-09-09T11:04:17.848Z,67.20
2022-09-09T11:06:25.515Z,67.00
2022-09-09T11:08:30.719Z,68.00
2022-09-09T11:10:42.512Z,67.50
2022-09-09T11:12:48.990Z,67.50
2022-09-09T11:14:58.377Z,66.60
2022-09-09T11:17:06.385Z,66.40
2022-09-09T11:19:16.351Z,67.00
2022-09-09T11:21:23.526Z,67.50
2022-09-09T11:23:33.345Z,67.10
2022-09-09T11:25:39.431Z,67.40
2022-09-09T11:27:53.497Z,67.40
2022-09-09T11:30:08.413Z,67.00
2022-09-09T11:32:31.404Z,66.80
2022-09-09T11:34:41.507Z,67.20
2022-09-09T11:37:07.660Z,66.90
2022-09-09T11:39:33.922Z,66.20
2022-09-09T11:41:38.724Z,65.80
2022-09-09T11:43:45.213Z,66.10
2022-09-09T11:46:00.166Z,66.00
2022-09-09T11:48:06.997Z,65.70
2022-09-09T11:50:13.275Z,66.10
2022-09-09T11:52:26.546Z,65.70
2022-09-09T11:54:33.276Z,65.60
2022-09-09T11:56:44.612Z,65.60
2022-09-09T11:58:58.689Z,66.20
2022-09-09T12:01:01.635Z,66.40
2022-09-09T12:03:04.852Z,65.30
2022-09-09T12:05:10.695Z,65.90
2022-09-09T12:07:34.143Z,65.60
2022-09-09T12:09:51.119Z,64.00
2022-09-09T12:11:54.464Z,63.00
2022-09-09T12:14:02.190Z,62.40
2022-09-09T12:16:06.734Z,61.20
2022-09-09T12:18:16.611Z,62.10
2022-09-09T12:20:22.644Z,61.60
2022-09-09T12:22:35.294Z,62.10
2022-09-09T12:24:44.508Z,61.00
2022-09-09T12:26:58.740Z,60.50
2022-09-09T12:29:14.462Z,60.50
2022-09-09T12:31:23.827Z,60.30
2022-09-09T12:33:35.419Z,60.30
2022-09-09T12:35:42.422Z,61.30
2022-09-09T12:37:54.847Z,61.00
2022-09-09T12:39:59.507Z,60.80
2022-09-09T12:42:05.257Z,60.80
2022-09-09T12:44:12.192Z,59.50
2022-09-09T12:46:24.455Z,59.60
2022-09-09T12:48:35.815Z,59.90
2022-09-09T12:50:46.210Z,59.80
2022-09-09T12:52:51.125Z,60.60
2022-09-09T12:54:54.809Z,59.90
2022-09-09T12:56:57.844Z,59.80
2022-09-09T12:59:01.849Z,60.30
2022-09-09T13:01:07.938Z,59.90
2022-09-09T13:03:19.871Z,60.30
2022-09-09T13:05:25.623Z,60.20
2022-09-09T13:07:28.914Z,59.80
2022-09-09T13:09:31.646Z,58.50
2022-09-09T13:11:40.223Z,60.00
2022-09-09T13:13:45.029Z,58.60
2022-09-09T13:15:53.084Z,57.00
2022-09-09T13:17:59.062Z,57.10
2022-09-09T13:20:02.115Z,56.00
2022-09-09T13:22:14.127Z,56.50
2022-09-09T13:24:31.231Z,56.50
2022-09-09T13:26:34.055Z,57.00
2022-09-09T13:28:36.965Z,57.60
2022-09-09T13:30:41.945Z,57.30
2022-09-09T13:32:44.727Z,58.40
2022-09-09T13:34:54.865Z,58.10
2022-09-09T13:37:03.310Z,58.60
2022-09-09T13:39:06.399Z,59.10
2022-09-09T13:41:12.607Z,59.10
2022-09-09T13:43:22.116Z,59.80
2022-09-09T13:45:28.207Z,59.10
2022-09-09T13:47:34.129Z,57.90
2022-09-09T13:49:36.883Z,58.10
2022-09-09T13:51:43.185Z,58.20
2022-09-09T13:53:48.112Z,58.50
2022-09-09T13:55:53.396Z,58.60
2022-09-09T13:57:57.793Z,57.70
2022-09-09T14:00:04.970Z,56.50
2022-09-09T14:02:09.464Z,55.80
2022-09-09T14:04:12.366Z,56.30
2022-09-09T14:06:15.097Z,56.20
2022-09-09T14:08:24.775Z,56.00
2022-09-09T14:10:27.533Z,56.10
2022-09-09T14:12:30.406Z,55.80
2022-09-09T14:14:33.170Z,56.60
2022-09-09T14:16:36.513Z,56.80
2022-09-09T14:18:39.908Z,55.50
2022-09-09T14:20:43.012Z,56.00
2022-09-09T14:22:46.071Z,56.60
2022-09-09T14:24:50.323Z,56.10
2022-09-09T14:26:53.715Z,55.70
2022-09-09T14:28:57.171Z,55.90
2022-09-09T14:31:01.838Z,55.70
2022-09-09T14:33:05.095Z,56.00
2022-09-09T14:35:08.482Z,55.00
2022-09-09T14:37:11.471Z,55.50
2022-09-09T14:39:14.154Z,55.40
2022-09-09T14:41:20.615Z,55.70
2022-09-09T14:43:23.307Z,55.70
2022-09-09T14:45:27.238Z,55.10
2022-09-09T14:47:31.153Z,55.10
2022-09-09T14:49:33.917Z,55.40
2022-09-09T14:51:36.616Z,55.30
2022-09-09T14:53:39.472Z,55.60
2022-09-09T14:55:42.158Z,55.80
2022-09-09T14:57:46.345Z,56.00
2022-09-09T14:59:51.350Z,56.50
2022-09-09T15:01:54.367Z,56.40
2022-09-09T15:03:58.967Z,56.00
2022-09-09T15:06:07.738Z,56.30
2022-09-09T15:08:10.436Z,55.50
2022-09-09T15:10:13.503Z,55.80
2022-09-09T15:12:16.453Z,55.90
2022-09-09T15:14:23.875Z,55.80
2022-09-09T15:16:30.135Z,56.30
2022-09-09T15:18:34.038Z,56.60
2022-09-09T15:20:40.242Z,56.90
2022-09-09T15:22:43.316Z,57.00
2022-09-09T15:24:46.015Z,56.70
2022-09-09T15:26:48.899Z,56.90
2022-09-09T15:28:52.156Z,57.10
2022-09-09T15:30:57.753Z,56.70
2022-09-09T15:33:00.481Z,56.00
2022-09-09T15:35:03.501Z,56.80
2022-09-09T15:37:07.230Z,56.80
2022-09-09T15:39:13.831Z,57.00
2022-09-09T15:41:17.862Z,56.60
2022-09-09T15:43:20.568Z,56.40
2022-09-09T15:45:23.416Z,56.70
2022-09-09T15:47:27.827Z,56.70
2022-09-09T15:49:30.934Z,56.30
2022-09-09T15:51:43.275Z,56.50
2022-09-09T15:53:46.877Z,56.50
2022-09-09T15:55:52.212Z,56.70
2022-09-09T15:57:58.698Z,57.20
2022-09-09T16:00:01.426Z,57.20
2022-09-09T16:02:05.204Z,56.60
2022-09-09T16:04:09.670Z,56.90
2022-09-09T16:06:12.844Z,56.50
2022-09-09T16:08:15.577Z,56.60
2022-09-09T16:10:18.378Z,56.80
2022-09-09T16:12:21.109Z,57.10
2022-09-09T16:14:23.939Z,57.40
2022-09-09T16:16:29.926Z,57.60
2022-09-09T16:18:37.103Z,57.20
2022-09-09T16:20:43.717Z,57.60
2022-09-09T16:22:46.899Z,58.30
2022-09-09T16:24:49.651Z,57.50
2022-09-09T16:26:54.174Z,57.60
2022-09-09T16:28:58.468Z,57.70
2022-09-09T16:31:05.612Z,57.80
2022-09-09T16:33:08.966Z,57.80
2022-09-09T16:35:11.933Z,57.90
2022-09-09T16:37:15.936Z,57.90
2022-09-09T16:39:20.426Z,57.80
2022-09-09T16:41:23.784Z,57.50
2022-09-09T16:43:29.167Z,57.40
2022-09-09T16:45:33.144Z,57.60
2022-09-09T16:47:35.927Z,57.90
2022-09-09T16:49:39.511Z,57.90
2022-09-09T16:51:43.945Z,58.30
2022-09-09T16:53:48.211Z,58.20
2022-09-09T16:55:51.657Z,58.30
2022-09-09T16:57:54.976Z,58.40
2022-09-09T17:00:00.392Z,58.70
2022-09-09T17:02:05.938Z,58.80
2022-09-09T17:04:11.733Z,59.00
2022-09-09T17:06:16.951Z,59.00
2022-09-09T17:08:19.706Z,59.00
2022-09-09T17:10:23.766Z,59.10
2022-09-09T17:12:27.159Z,59.10
2022-09-09T17:14:32.190Z,59.10
2022-09-09T17:16:36.099Z,59.40
2022-09-09T17:18:39.416Z,59.50
2022-09-09T17:20:47.008Z,59.50
2022-09-09T17:22:50.891Z,59.60
2022-09-09T17:24:53.685Z,59.80
2022-09-09T17:26:58.275Z,59.90
2022-09-09T17:29:02.646Z,60.10
2022-09-09T17:31:07.120Z,60.00
2022-09-09T17:33:11.055Z,60.00
2022-09-09T17:35:14.153Z,60.40
2022-09-09T17:37:16.974Z,60.30
2022-09-09T17:39:19.802Z,60.50
2022-09-09T17:41:24.871Z,60.90
2022-09-09T17:43:29.004Z,60.80
2022-09-09T17:45:32.854Z,60.70
2022-09-09T17:47:35.783Z,60.90
2022-09-09T17:49:41.724Z,61.00
2022-09-09T17:51:45.711Z,61.10
2022-09-09T17:53:50.441Z,61.10
2022-09-09T17:55:53.374Z,61.40
2022-09-09T17:57:56.105Z,61.40
2022-09-09T18:00:00.172Z,61.20
2022-09-09T18:02:05.513Z,61.20
2022-09-09T18:04:10.584Z,61.20
2022-09-09T18:06:17.291Z,61.90
2022-09-09T18:08:20.018Z,61.70
2022-09-09T18:10:22.726Z,61.90
2022-09-09T18:12:25.483Z,61.90
2022-09-09T18:14:31.146Z,61.90
2022-09-09T18:16:37.624Z,62.30
2022-09-09T18:18:40.544Z,62.40
2022-09-09T18:20:44.205Z,62.50
2022-09-09T18:22:46.890Z,62.60
2022-09-09T18:24:50.313Z,62.60
2022-09-09T18:26:53.397Z,62.50
2022-09-09T18:28:59.432Z,62.80
2022-09-09T18:31:05.324Z,62.80
2022-09-09T18:33:09.386Z,63.10
2022-09-09T18:35:12.141Z,63.20
2022-09-09T18:37:15.411Z,63.30
2022-09-09T18:39:19.526Z,63.30
2022-09-09T18:41:24.279Z,63.50
2022-09-09T18:43:27.121Z,63.80
2022-09-09T18:45:29.873Z,63.70
2022-09-09T18:47:32.770Z,63.90
2022-09-09T18:49:37.346Z,64.00
2022-09-09T18:51:42.740Z,64.10
2022-09-09T18:53:51.292Z,64.10
2022-09-09T18:56:00.119Z,64.20
2022-09-09T18:58:03.694Z,64.20
2022-09-09T19:00:09.640Z,64.20
2022-09-09T19:02:12.731Z,64.30
2022-09-09T19:04:15.963Z,64.40
2022-09-09T19:06:23.674Z,64.40
2022-09-09T19:08:26.884Z,64.40
2022-09-09T19:10:32.351Z,64.40
2022-09-09T19:12:35.555Z,64.40
2022-09-09T19:14:38.759Z,64.60
2022-09-09T19:16:41.556Z,64.60
2022-09-09T19:18:44.829Z,64.80
2022-09-09T19:20:47.658Z,64.70
2022-09-09T19:22:53.193Z,64.90
2022-09-09T19:24:56.619Z,65.10
2022-09-09T19:27:02.683Z,65.20
2022-09-09T19:29:05.483Z,65.80
2022-09-09T19:31:10.207Z,65.10
2022-09-09T19:33:12.935Z,65.20
2022-09-09T19:35:15.636Z,65.30
2022-09-09T19:37:18.985Z,65.50
2022-09-09T19:39:23.102Z,65.60
2022-09-09T19:41:28.662Z,65.80
2022-09-09T19:43:32.371Z,65.70
2022-09-09T19:45:35.425Z,65.80
2022-09-09T19:47:40.390Z,66.00
2022-09-09T19:49:47.049Z,66.10
2022-09-09T19:51:50.107Z,66.00
2022-09-09T19:53:56.206Z,66.20
2022-09-09T19:56:00.531Z,66.30
2022-09-09T19:58:05.819Z,66.40
2022-09-09T20:00:10.873Z,66.50
2022-09-09T20:02:15.458Z,66.50
2022-09-09T20:04:18.751Z,66.60
2022-09-09T20:06:23.660Z,66.80
2022-09-09T20:08:27.364Z,66.90
2022-09-09T20:10:31.872Z,67.00
2022-09-09T20:12:36.009Z,67.10
2022-09-09T20:14:39.983Z,67.40
2022-09-09T20:16:45.680Z,67.60
2022-09-09T20:18:50.856Z,67.60
2022-09-09T20:20:53.650Z,67.60
2022-09-09T20:22:57.390Z,67.80
2022-09-09T20:25:01.312Z,67.80
2022-09-09T20:27:07.094Z,68.00
2022-09-09T20:29:16.146Z,67.80
2022-09-09T20:31:21.662Z,68.00
2022-09-09T20:33:24.483Z,67.90
2022-09-09T20:35:28.970Z,68.20
2022-09-09T20:37:31.959Z,68.30
2022-09-09T20:39:38.984Z,68.30
2022-09-09T20:41:44.417Z,68.40
2022-09-09T20:43:49.025Z,68.60
2022-09-09T20:45:57.500Z,68.60
2022-09-09T20:48:00.260Z,68.90
2022-09-09T20:50:03.012Z,69.10
2022-09-09T20:52:06.935Z,69.20
2022-09-09T20:54:13.884Z,69.30
2022-09-09T20:56:17.243Z,69.30
2022-09-09T20:58:20.078Z,69.30
2022-09-09T21:00:22.847Z,69.40
2022-09-09T21:02:27.018Z,69.40
2022-09-09T21:04:29.956Z,69.60
2022-09-09T21:06:32.812Z,69.70
2022-09-09T21:08:36.804Z,69.80
2022-09-09T21:10:43.527Z,69.70
2022-09-09T21:12:46.714Z,69.80
2022-09-09T21:14:49.567Z,70.00
2022-09-09T21:16:52.390Z,70.00
2022-09-09T21:18:56.716Z,70.00
2022-09-09T21:20:59.760Z,70.00
2022-09-09T21:23:02.495Z,69.90
2022-09-09T21:25:06.106Z,70.00
2022-09-09T21:27:08.867Z,70.00
2022-09-09T21:29:13.078Z,70.00
2022-09-09T21:31:17.160Z,70.00
2022-09-09T21:33:22.209Z,70.20
2022-09-09T21:35:26.946Z,70.20
2022-09-09T21:37:30.062Z,70.40
2022-09-09T21:39:32.812Z,70.40
2022-09-09T21:41:36.489Z,70.40
2022-09-09T21:43:40.187Z,70.50
2022-09-09T21:45:44.072Z,70.70
2022-09-09T21:47:48.438Z,70.70
2022-09-09T21:49:51.443Z,70.80
2022-09-09T21:51:58.214Z,71.00
2022-09-09T21:54:01.262Z,71.00
2022-09-09T21:56:06.348Z,71.10
2022-09-09T21:58:09.621Z,71.20
2022-09-09T22:00:17.149Z,71.00
2022-09-09T22:02:20.143Z,71.00
2022-09-09T22:04:23.307Z,70.90
2022-09-09T22:06:26.317Z,71.00
2022-09-09T22:08:30.777Z,70.90
2022-09-09T22:10:33.751Z,71.10
2022-09-09T22:12:36.642Z,71.10
2022-09-09T22:14:39.875Z,71.20
2022-09-09T22:16:42.629Z,71.20
2022-09-09T22:18:46.154Z,71.10
2022-09-09T22:20:49.273Z,71.30
2022-09-09T22:22:52.338Z,71.30
2022-09-09T22:24:56.508Z,71.40
2022-09-09T22:26:59.457Z,71.40
2022-09-09T22:29:03.329Z,71.40
2022-09-09T22:31:06.913Z,71.50
2022-09-09T22:33:09.823Z,71.60
2022-09-09T22:35:12.870Z,71.70
2022-09-09T22:37:15.711Z,71.90
2022-09-09T22:39:18.442Z,72.10
2022-09-09T22:41:22.982Z,72.00
2022-09-09T22:43:25.791Z,72.20
2022-09-09T22:45:28.529Z,72.20
2022-09-09T22:47:31.264Z,72.40
2022-09-09T22:49:34.091Z,72.30
2022-09-09T22:51:36.810Z,72.40
2022-09-09T22:53:40.796Z,72.40
2022-09-09T22:55:43.806Z,72.50
2022-09-09T22:57:48.128Z,72.60
2022-09-09T22:59:51.100Z,72.70
2022-09-09T23:01:53.922Z,72.70
2022-09-09T23:03:59.325Z,72.70
2022-09-09T23:06:04.256Z,72.60
2022-09-09T23:08:07.189Z,72.90
2022-09-09T23:10:11.200Z,72.70
2022-09-09T23:12:14.855Z,72.80
2022-09-09T23:14:18.994Z,73.00
2022-09-09T23:16:24.183Z,73.00
2022-09-09T23:18:26.922Z,73.30
2022-09-09T23:20:33.349Z,73.40
2022-09-09T23:22:36.403Z,73.30
2022-09-09T23:24:39.708Z,73.40
2022-09-09T23:26:43.396Z,73.20
2022-09-09T23:28:46.704Z,73.20
2022-09-09T23:30:51.131Z,73.30
2022-09-09T23:32:53.881Z,73.30
2022-09-09T23:34:56.645Z,73.40
2022-09-09T23:36:59.541Z,73.40
2022-09-09T23:39:04.476Z,73.50
2022-09-09T23:41:09.616Z,73.50
2022-09-09T23:43:12.311Z,73.60
2022-09-09T23:45:15.697Z,73.50
2022-09-09T23:47:19.694Z,73.60
2022-09-09T23:49:22.761Z,73.60
2022-09-09T23:51:28.946Z,73.70
2022-09-09T23:53:31.809Z,73.70
2022-09-09T23:55:35.561Z,73.90
2022-09-09T23:57:39.053Z,74.00
2022-09-09T23:59:42.196Z,74.20
